Terminal Aerodrome Forecast
Issued by NWS

Current Version | Previous Version | Graphics & Text | Print | Product List | Glossary On
Versions: 1 2 3 4 5 6 7 8 9 10 11 12 13 14 15 16 17 18 19 20 21
354
FTUS41 KILN 191059 AAB
TAFLCK
TAF AMD
KLCK 191059Z 1911/2006 22005KT P6SM OVC008
      TEMPO 1911/1914 OVC012
     FM191400 14004KT P6SM OVC250
     FM191800 13006KT P6SM OVC150
     FM200500 09006KT 4SM -RA BR OVC050=

USA.gov is the U.S. government's official web portal to all federal, state and local government web resources and services.